Dreka, Texas
Current Conditions -  °F | °C
As of 1:15 PM on Tuesday 21 Oct 2014 (Local Time) from KOCH Reporting Station
Clear Clear  
Wind Chill: 77°   Ceiling: Unl
Heat Index: 79°   Visibility: 10mi
Dew Point: 57°   Wind: 6mph
Humidity: 50%   Direction: 110°ESE
Pressure: 30.08"   Gusts: NA
Location:  31.7022°N, 93.9592°W
Report Text: KOCH 211815Z AUTO 11005KT 10SM CLR 25/14 A3008 RMK AO1
Loading
Personal Weather Stations






























Interactive Weather Map New forecast layout! Learn more

10-Day Weather Forecast

Advertisements
Track Severe Weather on mobile